TimePDT,TemperatureF,Dew PointF,Humidity,Sea Level PressureIn,VisibilityMPH,Wind Direction,Wind SpeedMPH,Gust SpeedMPH,PrecipitationIn,Events,Conditions,WindDirDegrees,DateUTC
12:15 AM,57.2,35.6,44,30.13,10.0,Calm,Calm,-,N/A,,Clear,0,2013-06-11 07:15:00
10:35 AM,71.6,17.6,13,30.19,10.0,South,17.3,31.1,N/A,,Clear,190,2013-06-11 17:35:00
10:55 AM,71.6,19.4,14,30.19,10.0,South,12.7,28.8,N/A,,Clear,180,2013-06-11 17:55:00
11:15 AM,73.4,21.2,14,30.20,10.0,SW,13.8,28.8,N/A,,Clear,220,2013-06-11 18:15:00
11:35 AM,73.4,23.0,15,30.20,10.0,South,17.3,28.8,N/A,,Clear,190,2013-06-11 18:35:00
11:55 AM,75.2,23.0,14,30.20,10.0,SSW,20.7,32.2,N/A,,Scattered Clouds,210,2013-06-11 18:55:00
12:15 PM,75.2,23.0,14,30.20,10.0,SSW,17.3,27.6,N/A,,Scattered Clouds,210,2013-06-11 19:15:00
12:35 PM,75.2,24.8,15,30.20,10.0,SSW,26.5,31.1,N/A,,Scattered Clouds,210,2013-06-11 19:35:00
12:55 PM,75.2,24.8,15,30.20,10.0,SSW,13.8,29.9,N/A,,Scattered Clouds,210,2013-06-11 19:55:00
1:15 PM,77.0,24.8,14,30.19,10.0,South,11.5,27.6,N/A,,Scattered Clouds,190,2013-06-11 20:15:00
1:35 PM,75.2,24.8,15,30.19,10.0,SSW,21.9,33.4,N/A,,Scattered Clouds,200,2013-06-11 20:35:00
1:55 PM,77.0,24.8,14,30.20,10.0,SW,9.2,29.9,N/A,,Scattered Clouds,230,2013-06-11 20:55:00
2:15 PM,75.2,26.6,17,30.19,10.0,SSW,11.5,28.8,N/A,,Mostly Cloudy,210,2013-06-11 21:15:00
2:35 PM,75.2,26.6,17,30.19,10.0,WSW,15.0,34.5,N/A,,Mostly Cloudy,250,2013-06-11 21:35:00
2:55 PM,75.2,24.8,15,30.19,10.0,SW,11.5,28.8,N/A,,Mostly Cloudy,220,2013-06-11 21:55:00
3:15 PM,75.2,24.8,15,30.18,10.0,SE,12.7,29.9,N/A,,Mostly Cloudy,130,2013-06-11 22:15:00
3:35 PM,75.2,24.8,15,30.17,10.0,West,11.5,32.2,N/A,,Mostly Cloudy,270,2013-06-11 22:35:00
3:55 PM,75.2,26.6,17,30.18,10.0,SSW,16.1,27.6,N/A,,Mostly Cloudy,210,2013-06-11 22:55:00
4:15 PM,73.4,26.6,18,30.17,10.0,South,10.4,29.9,N/A,,Mostly Cloudy,190,2013-06-11 23:15:00
4:35 PM,75.2,26.6,17,30.17,10.0,SSW,21.9,28.8,N/A,,Mostly Cloudy,210,2013-06-11 23:35:00
4:55 PM,75.2,28.4,18,30.17,10.0,SSW,11.5,27.6,N/A,,Scattered Clouds,200,2013-06-11 23:55:00
5:15 PM,73.4,28.4,19,30.17,10.0,SW,9.2,23.0,N/A,,Mostly Cloudy,230,2013-06-12 00:15:00
5:35 PM,75.2,28.4,18,30.17,10.0,SSW,16.1,28.8,N/A,,Scattered Clouds,210,2013-06-12 00:35:00
5:55 PM,73.4,30.2,20,30.16,10.0,WNW,11.5,24.2,N/A,,Scattered Clouds,290,2013-06-12 00:55:00
6:15 PM,71.6,28.4,20,30.17,10.0,South,5.8,-,N/A,,Scattered Clouds,170,2013-06-12 01:15:00
6:35 PM,71.6,30.2,22,30.17,10.0,WSW,13.8,23.0,N/A,,Scattered Clouds,250,2013-06-12 01:35:00
6:55 PM,71.6,30.2,22,30.18,10.0,West,13.8,23.0,N/A,,Scattered Clouds,280,2013-06-12 01:55:00
7:15 PM,69.8,32.0,25,30.18,10.0,West,6.9,28.8,N/A,,Scattered Clouds,260,2013-06-12 02:15:00
7:35 PM,68.0,32.0,26,30.18,10.0,NNW,8.1,26.5,N/A,,Scattered Clouds,340,2013-06-12 02:35:00
7:55 PM,66.2,30.2,26,30.18,10.0,WSW,9.2,29.9,N/A,,Scattered Clouds,250,2013-06-12 02:55:00
8:15 PM,66.2,30.2,26,30.18,10.0,SW,18.4,24.2,N/A,,Clear,230,2013-06-12 03:15:00
8:35 PM,66.2,30.2,26,30.19,10.0,NW,8.1,-,N/A,,Clear,310,2013-06-12 03:35:00
8:55 PM,62.6,30.2,30,30.19,10.0,South,10.4,21.9,N/A,,Clear,190,2013-06-12 03:55:00
9:15 PM,60.8,32.0,34,30.20,10.0,West,8.1,20.7,N/A,,Clear,280,2013-06-12 04:15:00
9:35 PM,60.8,32.0,34,30.21,10.0,NW,3.5,-,N/A,,Clear,310,2013-06-12 04:35:00
9:55 PM,60.8,28.4,29,30.22,10.0,West,10.4,16.1,N/A,,Clear,270,2013-06-12 04:55:00
10:15 PM,59.0,32.0,36,30.22,10.0,WNW,6.9,-,N/A,,Clear,290,2013-06-12 05:15:00
10:35 PM,57.2,32.0,38,30.21,10.0,North,5.8,-,N/A,,Clear,10,2013-06-12 05:35:00
10:55 PM,55.4,32.0,41,30.21,10.0,Calm,Calm,-,N/A,,Clear,0,2013-06-12 05:55:00
11:15 PM,59.0,30.2,34,30.21,10.0,NW,8.1,11.5,N/A,,Clear,320,2013-06-12 06:15:00
11:35 PM,62.6,23.0,22,30.20,10.0,West,6.9,24.2,N/A,,Clear,260,2013-06-12 06:35:00
11:55 PM,57.2,26.6,31,30.20,10.0,SW,5.8,19.6,N/A,,Clear,230,2013-06-12 06:55:00